Time;durP1;ratioP1;P1;durP2;ratioP2;P2;SDS_P1;SDS_P2;PMS_P1;PMS_P2;Temp;Humidity;BMP_temperature;BMP_pressure;BME280_temperature;BME280_humidity;BME280_pressure;Samples;Min_cycle;Max_cycle;Signal;HPM_P1;HPM_P2
2021/04/22 00:01:47;;;;;;;6.18;1.20;;;7.00;67.40;;;;;;5089876;28;20048;-81
2021/04/22 00:04:13;;;;;;;8.23;1.10;;;7.00;66.50;;;;;;5088297;28;20020;-81
2021/04/22 00:06:38;;;;;;;6.35;1.52;;;7.00;66.60;;;;;;5086643;28;20024;-81
2021/04/22 00:09:06;;;;;;;6.18;1.35;;;7.00;66.70;;;;;;5088386;28;20028;-82
2021/04/22 00:11:31;;;;;;;7.60;1.48;;;6.90;66.90;;;;;;5085808;28;20391;-81
2021/04/22 00:13:57;;;;;;;7.43;1.27;;;6.80;67.10;;;;;;5089108;28;20031;-81
2021/04/22 00:16:23;;;;;;;6.32;1.20;;;6.80;67.40;;;;;;5087746;28;20170;-81
2021/04/22 00:18:48;;;;;;;6.07;1.20;;;6.70;67.70;;;;;;5087675;28;20048;-81
2021/04/22 00:21:14;;;;;;;7.30;1.20;;;6.60;68.00;;;;;;5088846;28;20438;-82
2021/04/22 00:23:39;;;;;;;6.00;1.00;;;6.60;68.80;;;;;;5087471;28;20024;-82
2021/04/22 00:26:05;;;;;;;6.03;1.30;;;6.60;68.20;;;;;;5089595;28;20099;-81
2021/04/22 00:28:30;;;;;;;7.45;1.05;;;6.60;68.30;;;;;;5089188;28;20036;-81
2021/04/22 00:30:56;;;;;;;8.10;1.88;;;6.60;68.60;;;;;;5091648;28;20047;-81
2021/04/22 00:33:23;;;;;;;7.22;1.75;;;6.50;68.70;;;;;;5087446;28;20121;-81
2021/04/22 00:35:49;;;;;;;6.30;1.23;;;6.60;68.70;;;;;;5087623;28;20066;-81
2021/04/22 00:38:16;;;;;;;7.65;1.30;;;6.60;68.40;;;;;;5089920;28;20020;-81
2021/04/22 00:40:42;;;;;;;4.70;1.00;;;6.70;68.10;;;;;;5087746;28;20020;-82
2021/04/22 00:43:11;;;;;;;7.53;1.30;;;6.70;68.00;;;;;;5089322;28;20074;-81
2021/04/22 00:45:37;;;;;;;5.43;1.00;;;6.70;68.00;;;;;;5089512;28;20021;-81
2021/04/22 00:48:05;;;;;;;8.20;1.20;;;6.60;68.30;;;;;;5091621;28;20112;-81
2021/04/22 00:50:33;;;;;;;8.50;1.33;;;6.50;68.60;;;;;;5090113;28;20020;-81
2021/04/22 00:53:00;;;;;;;4.57;0.98;;;6.50;69.00;;;;;;5091366;28;20028;-81
2021/04/22 00:55:27;;;;;;;3.38;0.90;;;6.40;69.50;;;;;;5093397;28;20027;-81
2021/04/22 00:57:53;;;;;;;4.28;0.82;;;6.30;69.70;;;;;;5091076;28;20078;-81
2021/04/22 01:00:23;;;;;;;4.47;1.20;;;6.30;69.80;;;;;;5092974;28;20065;-81
2021/04/22 01:02:49;;;;;;;5.10;0.95;;;6.30;69.80;;;;;;5092614;28;20020;-81
2021/04/22 01:05:22;;;;;;;8.63;1.60;;;6.40;69.70;;;;;;5093666;28;20085;-81
2021/04/22 01:07:48;;;;;;;4.72;0.90;;;6.50;69.60;;;;;;5090111;28;20029;-81
2021/04/22 01:10:17;;;;;;;5.80;0.90;;;6.50;69.40;;;;;;5091478;28;20020;-81
2021/04/22 01:12:43;;;;;;;7.82;1.13;;;6.50;69.30;;;;;;5090712;28;20016;-81
2021/04/22 01:15:20;;;;;;;2.58;0.98;;;6.50;69.90;;;;;;5091721;28;20012;-81
2021/04/22 01:17:46;;;;;;;7.82;1.67;;;6.50;69.30;;;;;;5086982;28;20068;-81
2021/04/22 01:20:19;;;;;;;7.35;1.17;;;6.50;69.40;;;;;;5052554;28;20052;-81
2021/04/22 01:22:46;;;;;;;7.28;1.02;;;6.50;69.40;;;;;;5054837;28;20029;-81
2021/04/22 01:25:15;;;;;;;7.63;1.00;;;6.40;69.40;;;;;;5071884;28;20488;-81
2021/04/22 01:27:41;;;;;;;4.25;0.80;;;6.40;69.60;;;;;;5073564;28;20541;-81
2021/04/22 01:30:14;;;;;;;6.75;1.10;;;6.30;69.60;;;;;;5055599;28;20073;-81
2021/04/22 01:32:40;;;;;;;8.82;1.13;;;6.40;69.70;;;;;;5054082;28;20028;-81
2021/04/22 01:35:08;;;;;;;5.20;1.00;;;6.30;69.70;;;;;;5053416;28;20025;-81
2021/04/22 01:37:35;;;;;;;6.07;1.05;;;6.30;69.90;;;;;;5052893;28;20020;-81
2021/04/22 01:40:03;;;;;;;5.18;1.08;;;6.30;70.00;;;;;;5043655;28;20372;-81
2021/04/22 01:42:29;;;;;;;3.67;0.90;;;6.30;70.30;;;;;;5053825;28;20025;-81
2021/04/22 01:44:55;;;;;;;4.75;1.10;;;6.20;70.30;;;;;;5055287;28;20021;-81
2021/04/22 01:47:20;;;;;;;5.65;1.13;;;6.20;70.30;;;;;;5054851;28;20526;-82
2021/04/22 01:49:46;;;;;;;8.07;1.40;;;6.10;70.40;;;;;;5050366;28;20046;-81
2021/04/22 01:52:11;;;;;;;6.10;1.23;;;6.00;70.70;;;;;;5052659;28;20024;-82
2021/04/22 01:54:37;;;;;;;6.85;1.58;;;5.90;71.20;;;;;;5070910;28;20024;-81
2021/04/22 01:57:03;;;;;;;5.60;1.27;;;5.90;71.70;;;;;;5054291;28;20108;-81
2021/04/22 01:59:28;;;;;;;7.05;1.13;;;5.80;72.00;;;;;;5053469;28;20032;-81
2021/04/22 02:01:54;;;;;;;9.57;1.60;;;5.80;72.20;;;;;;5072342;28;20021;-81
2021/04/22 02:04:19;;;;;;;7.68;1.30;;;5.80;72.30;;;;;;5072324;28;20032;-81
2021/04/22 02:06:45;;;;;;;4.82;1.30;;;5.70;72.50;;;;;;5051303;28;20046;-82
2021/04/22 02:09:11;;;;;;;5.10;1.40;;;5.70;72.70;;;;;;5048605;28;20032;-82
2021/04/22 02:11:36;;;;;;;4.18;1.23;;;5.70;72.90;;;;;;5052829;28;20016;-82
2021/04/22 02:14:02;;;;;;;7.65;1.27;;;5.70;73.00;;;;;;5053969;28;20087;-82
2021/04/22 02:16:27;;;;;;;7.03;2.13;;;5.70;73.10;;;;;;5052527;28;20384;-82
2021/04/22 02:18:53;;;;;;;9.55;1.83;;;5.70;73.10;;;;;;5073916;28;20048;-81
2021/04/22 02:21:19;;;;;;;9.27;1.40;;;5.80;73.20;;;;;;5090214;28;20029;-81
2021/04/22 02:23:44;;;;;;;6.95;1.23;;;5.80;73.20;;;;;;5059453;28;20032;-81
2021/04/22 02:26:10;;;;;;;9.90;1.75;;;5.70;73.40;;;;;;5092227;28;20421;-81
2021/04/22 02:28:36;;;;;;;7.68;1.75;;;5.70;73.60;;;;;;5091892;28;20060;-81
2021/04/22 02:31:02;;;;;;;6.40;1.13;;;5.70;74.60;;;;;;5091726;28;20065;-81
2021/04/22 02:33:27;;;;;;;7.03;1.40;;;5.60;74.10;;;;;;5089804;28;20012;-81
2021/04/22 02:35:53;;;;;;;8.65;1.92;;;5.60;74.50;;;;;;5087920;28;20020;-81
2021/04/22 02:38:18;;;;;;;6.03;1.58;;;5.60;74.70;;;;;;5090080;28;20016;-81
2021/04/22 02:40:46;;;;;;;6.47;1.20;;;5.70;75.40;;;;;;5089984;28;20046;-82
2021/04/22 02:43:14;;;;;;;5.75;1.20;;;5.70;75.20;;;;;;5090857;28;20038;-82
2021/04/22 02:45:49;;;;;;;4.50;1.30;;;5.70;75.20;;;;;;5090268;28;20017;-81
2021/04/22 02:48:15;;;;;;;6.18;1.65;;;5.70;74.60;;;;;;5088669;28;20364;-81
2021/04/22 02:50:44;;;;;;;6.60;1.50;;;5.70;74.60;;;;;;5086241;28;20026;-80
2021/04/22 02:53:10;;;;;;;6.55;1.30;;;5.80;74.60;;;;;;5078682;28;20012;-81
2021/04/22 02:55:36;;;;;;;6.05;1.90;;;5.80;74.70;;;;;;5089917;28;20095;-81
2021/04/22 02:58:02;;;;;;;5.85;1.40;;;5.70;74.70;;;;;;5086932;28;20027;-81
2021/04/22 03:00:28;;;;;;;9.38;2.20;;;5.80;74.80;;;;;;5085022;28;20020;-80
2021/04/22 03:02:54;;;;;;;4.20;1.65;;;5.80;74.80;;;;;;5090169;28;20024;-81
2021/04/22 03:05:20;;;;;;;7.10;1.60;;;5.80;74.90;;;;;;5090948;28;20419;-81
2021/04/22 03:07:46;;;;;;;5.25;1.35;;;5.80;74.90;;;;;;5086287;28;20114;-80
2021/04/22 03:10:15;;;;;;;6.43;1.75;;;5.80;75.00;;;;;;5089523;28;20024;-81
2021/04/22 03:12:40;;;;;;;4.78;1.65;;;5.70;75.10;;;;;;5085253;28;20061;-80
2021/04/22 03:15:07;;;;;;;6.10;1.48;;;5.70;75.10;;;;;;5089089;28;20119;-80
2021/04/22 03:17:35;;;;;;;4.28;1.30;;;5.70;75.20;;;;;;5090230;28;20047;-81
2021/04/22 03:20:04;;;;;;;6.15;1.50;;;5.60;75.40;;;;;;5059692;28;20016;-80
2021/04/22 03:22:29;;;;;;;3.55;1.63;;;5.50;75.90;;;;;;5089556;28;20024;-80
2021/04/22 03:24:55;;;;;;;5.30;1.90;;;5.40;76.50;;;;;;5089300;28;20134;-80
2021/04/22 03:27:20;;;;;;;5.28;1.55;;;5.40;76.80;;;;;;5089454;28;20024;-81
2021/04/22 03:29:46;;;;;;;7.57;1.85;;;5.40;76.80;;;;;;5090287;28;20024;-81
2021/04/22 03:32:11;;;;;;;4.97;1.77;;;5.40;76.90;;;;;;5090250;28;20050;-80
2021/04/22 03:34:37;;;;;;;7.47;2.13;;;5.40;76.90;;;;;;5089629;28;20048;-80
2021/04/22 03:37:02;;;;;;;8.05;1.52;;;5.40;77.00;;;;;;5086343;28;20027;-80
2021/04/22 03:39:28;;;;;;;6.20;1.38;;;5.40;77.00;;;;;;5083779;28;20024;-81
2021/04/22 03:41:53;;;;;;;6.10;1.90;;;5.40;76.80;;;;;;5090404;28;20028;-81
2021/04/22 03:44:19;;;;;;;8.63;3.00;;;5.30;77.00;;;;;;5089165;28;20024;-81
2021/04/22 03:46:45;;;;;;;8.60;3.05;;;5.30;77.50;;;;;;5090016;28;20020;-81
2021/04/22 03:49:10;;;;;;;4.88;2.05;;;5.20;77.60;;;;;;5087420;28;20024;-81
2021/04/22 03:51:36;;;;;;;5.88;2.33;;;5.20;77.90;;;;;;5088302;28;20024;-81
2021/04/22 03:54:02;;;;;;;8.13;2.78;;;5.20;78.60;;;;;;5087724;28;20387;-81
2021/04/22 03:56:27;;;;;;;7.55;2.05;;;5.10;78.10;;;;;;5089085;28;20081;-81
2021/04/22 03:58:53;;;;;;;5.57;1.63;;;5.10;78.10;;;;;;5089259;28;20089;-81
2021/04/22 04:01:18;;;;;;;7.20;2.00;;;5.10;78.40;;;;;;5088941;28;20548;-81
2021/04/22 04:03:44;;;;;;;7.35;1.70;;;5.10;78.50;;;;;;5090045;28;20468;-80
2021/04/22 04:06:09;;;;;;;8.82;2.25;;;5.10;78.60;;;;;;5087555;28;20025;-81
2021/04/22 04:08:35;;;;;;;9.43;2.78;;;5.10;79.30;;;;;;5088080;28;20042;-81
2021/04/22 04:11:00;;;;;;;9.23;2.20;;;5.10;79.00;;;;;;5086406;28;20488;-81
2021/04/22 04:13:26;;;;;;;6.28;2.80;;;5.00;79.30;;;;;;5090284;28;20028;-81
2021/04/22 04:15:52;;;;;;;8.10;2.17;;;5.00;79.60;;;;;;5088161;28;20020;-80
2021/04/22 04:18:21;;;;;;;5.75;1.65;;;4.90;79.80;;;;;;5086427;28;20109;-81
2021/04/22 04:20:48;;;;;;;4.50;1.95;;;4.90;79.80;;;;;;5083465;28;20107;-81
2021/04/22 04:23:13;;;;;;;7.40;2.60;;;4.90;79.80;;;;;;5089455;28;20035;-80
2021/04/22 04:25:39;;;;;;;8.30;2.42;;;4.90;80.30;;;;;;5092276;28;20020;-81
2021/04/22 04:28:05;;;;;;;6.30;2.75;;;4.90;80.60;;;;;;5093323;28;20024;-80
2021/04/22 04:30:31;;;;;;;7.82;2.58;;;4.90;81.10;;;;;;5093097;28;20024;-80
2021/04/22 04:32:57;;;;;;;7.20;2.30;;;4.90;81.10;;;;;;5094333;28;20023;-81
2021/04/22 04:35:22;;;;;;;5.05;1.85;;;4.90;81.20;;;;;;5089166;28;20016;-81
2021/04/22 04:37:48;;;;;;;4.30;1.70;;;4.90;81.30;;;;;;5092652;28;20471;-81
2021/04/22 04:40:17;;;;;;;5.70;1.90;;;4.90;81.60;;;;;;5091954;28;20468;-81
2021/04/22 04:42:43;;;;;;;6.57;2.17;;;4.90;81.80;;;;;;5093630;28;20498;-81
2021/04/22 04:45:11;;;;;;;4.78;1.60;;;4.90;82.20;;;;;;5094470;28;20036;-81
2021/04/22 04:47:37;;;;;;;5.90;2.58;;;4.80;82.40;;;;;;5090180;28;20029;-81
2021/04/22 04:50:05;;;;;;;4.50;1.70;;;4.80;82.80;;;;;;5093818;28;20103;-81
2021/04/22 04:52:30;;;;;;;6.25;1.40;;;4.80;83.00;;;;;;5088928;28;20078;-81
2021/04/22 04:54:56;;;;;;;5.10;1.60;;;4.80;83.00;;;;;;5091925;28;20016;-81
2021/04/22 04:57:21;;;;;;;4.90;1.70;;;4.90;83.10;;;;;;5090535;28;20012;-81
2021/04/22 04:59:47;;;;;;;8.15;1.75;;;4.90;83.10;;;;;;5094036;28;20475;-80
2021/04/22 05:02:12;;;;;;;5.93;1.42;;;4.90;83.00;;;;;;5093133;28;20024;-81
2021/04/22 05:04:38;;;;;;;7.28;2.03;;;4.90;83.10;;;;;;5092764;28;20020;-80
2021/04/22 05:07:03;;;;;;;11.73;3.30;;;4.80;83.40;;;;;;5093634;28;20118;-80
2021/04/22 05:09:29;;;;;;;10.35;3.15;;;4.70;84.50;;;;;;5076230;28;20016;-81
2021/04/22 05:11:55;;;;;;;12.13;2.88;;;4.70;85.40;;;;;;5074054;28;20077;-81
2021/04/22 05:14:21;;;;;;;8.88;3.00;;;4.60;85.50;;;;;;5073988;28;20025;-81
2021/04/22 05:16:46;;;;;;;14.65;3.20;;;4.60;85.90;;;;;;5073999;28;20361;-81
2021/04/22 05:19:12;;;;;;;13.63;3.53;;;4.70;86.80;;;;;;5073641;28;20407;-81
2021/04/22 05:21:38;;;;;;;16.13;4.10;;;4.70;87.60;;;;;;5073724;28;20476;-81
2021/04/22 05:24:04;;;;;;;16.23;3.67;;;4.80;87.90;;;;;;5072861;28;20033;-81
2021/04/22 05:26:29;;;;;;;12.93;3.20;;;4.70;87.60;;;;;;5071515;28;20114;-81
2021/04/22 05:28:55;;;;;;;8.23;2.55;;;4.80;87.40;;;;;;5073328;28;20079;-82
2021/04/22 05:31:22;;;;;;;7.07;2.53;;;4.80;87.20;;;;;;5073615;28;20021;-82
2021/04/22 05:33:48;;;;;;;7.07;2.65;;;4.90;87.00;;;;;;5073799;28;20547;-81
2021/04/22 05:36:14;;;;;;;7.35;1.98;;;5.00;86.70;;;;;;5072743;28;20111;-81
2021/04/22 05:38:40;;;;;;;6.38;2.30;;;5.00;86.40;;;;;;5073523;28;20468;-82
2021/04/22 05:41:05;;;;;;;9.65;3.00;;;5.00;86.30;;;;;;5074938;28;20476;-82
2021/04/22 05:43:31;;;;;;;9.82;2.75;;;5.00;86.80;;;;;;5075078;28;20433;-81
2021/04/22 05:45:57;;;;;;;11.00;3.92;;;4.90;87.00;;;;;;5073370;28;20078;-82
2021/04/22 05:48:23;;;;;;;11.90;4.25;;;4.90;87.60;;;;;;5073611;28;20024;-81
2021/04/22 05:50:48;;;;;;;19.20;6.25;;;4.90;87.70;;;;;;5071165;28;20481;-81
2021/04/22 05:53:16;;;;;;;16.75;6.03;;;4.80;88.20;;;;;;5064869;28;20091;-81
2021/04/22 05:55:41;;;;;;;17.65;5.75;;;4.80;89.90;;;;;;5071085;28;20025;-81
2021/04/22 05:58:07;;;;;;;18.35;6.43;;;4.70;90.30;;;;;;5074666;28;20027;-81
2021/04/22 06:00:33;;;;;;;16.17;5.50;;;4.70;90.70;;;;;;5073450;28;20056;-82
2021/04/22 06:02:59;;;;;;;18.30;5.00;;;4.70;90.80;;;;;;5074675;28;20107;-82
2021/04/22 06:05:28;;;;;;;18.42;5.45;;;4.70;91.00;;;;;;5073327;28;20541;-81
2021/04/22 06:07:54;;;;;;;12.35;4.93;;;4.80;91.10;;;;;;5072502;28;20032;-82
2021/04/22 06:10:20;;;;;;;15.02;5.05;;;4.90;91.10;;;;;;5063711;28;20064;-82
2021/04/22 06:12:46;;;;;;;10.77;4.45;;;4.90;90.90;;;;;;5056579;28;20028;-82
2021/04/22 06:15:13;;;;;;;8.52;3.83;;;5.00;90.70;;;;;;5055433;28;20075;-81
2021/04/22 06:17:39;;;;;;;12.02;4.82;;;5.10;90.60;;;;;;5071102;28;20051;-82
2021/04/22 06:20:09;;;;;;;14.77;4.80;;;5.20;90.80;;;;;;5036526;28;20111;-82
2021/04/22 06:22:35;;;;;;;12.98;4.53;;;5.20;90.70;;;;;;5036015;28;20119;-81
2021/04/22 06:25:01;;;;;;;22.30;6.35;;;5.30;90.80;;;;;;5033223;28;20128;-81
2021/04/22 06:27:26;;;;;;;16.95;6.22;;;5.50;91.20;;;;;;5034114;28;20025;-82
2021/04/22 06:29:52;;;;;;;18.00;6.32;;;5.50;91.50;;;;;;5044427;28;20039;-82
2021/04/22 06:32:17;;;;;;;19.35;5.72;;;5.60;91.70;;;;;;5042653;28;20018;-82
2021/04/22 06:34:43;;;;;;;12.55;5.47;;;5.60;91.80;;;;;;5053519;28;20021;-81
2021/04/22 06:37:08;;;;;;;23.17;5.40;;;5.70;92.10;;;;;;5033557;28;20537;-81
2021/04/22 06:39:34;;;;;;;16.95;4.85;;;5.80;92.10;;;;;;5044236;28;20033;-81
2021/04/22 06:41:59;;;;;;;16.23;5.50;;;5.80;92.10;;;;;;5042576;28;20474;-81
2021/04/22 06:44:25;;;;;;;15.35;4.93;;;5.90;92.50;;;;;;5033982;28;20074;-82
2021/04/22 06:46:51;;;;;;;17.83;4.88;;;5.90;92.30;;;;;;5031829;28;20061;-81
2021/04/22 06:49:16;;;;;;;13.27;4.68;;;6.00;92.20;;;;;;5031792;28;20033;-80
2021/04/22 06:51:42;;;;;;;13.07;4.97;;;6.10;92.10;;;;;;5030248;28;20025;-82
2021/04/22 06:54:07;;;;;;;14.93;4.95;;;6.10;91.90;;;;;;5035222;28;20074;-81
2021/04/22 06:56:33;;;;;;;11.90;3.97;;;6.20;91.90;;;;;;5019796;28;20080;-81
2021/04/22 06:59:01;;;;;;;10.88;3.75;;;6.30;91.80;;;;;;5045178;28;20021;-81
2021/04/22 07:01:26;;;;;;;6.93;2.75;;;6.40;91.60;;;;;;5053521;28;20496;-80
2021/04/22 07:03:52;;;;;;;13.02;3.90;;;6.50;91.40;;;;;;5053478;28;20029;-81
2021/04/22 07:06:18;;;;;;;6.47;2.00;;;6.70;91.00;;;;;;5035088;28;20028;-81
2021/04/22 07:08:43;;;;;;;5.45;2.53;;;6.90;90.70;;;;;;5053023;28;20029;-80
2021/04/22 07:11:09;;;;;;;6.18;1.95;;;7.00;90.40;;;;;;5053185;28;20522;-81
2021/04/22 07:13:35;;;;;;;11.35;2.60;;;7.00;90.10;;;;;;5053209;28;20079;-80
2021/04/22 07:16:00;;;;;;;6.25;2.05;;;7.10;89.90;;;;;;5044159;28;20461;-81
2021/04/22 07:18:26;;;;;;;14.50;3.10;;;7.20;89.40;;;;;;5033014;28;20394;-81
2021/04/22 07:20:51;;;;;;;10.65;2.42;;;7.20;89.00;;;;;;5033071;28;20060;-80
2021/04/22 07:23:17;;;;;;;13.57;2.75;;;7.20;88.70;;;;;;5015318;28;20029;-81
2021/04/22 07:25:43;;;;;;;8.77;2.08;;;7.20;87.70;;;;;;5033109;28;20095;-81
2021/04/22 07:28:10;;;;;;;13.23;2.50;;;7.20;87.60;;;;;;5033198;28;20079;-82
2021/04/22 07:30:37;;;;;;;5.80;1.73;;;7.30;87.30;;;;;;5015459;28;20029;-81
2021/04/22 07:33:04;;;;;;;8.25;2.13;;;7.30;87.20;;;;;;5033119;28;20021;-81
2021/04/22 07:35:30;;;;;;;7.00;2.15;;;7.40;86.80;;;;;;5016125;28;20022;-82
2021/04/22 07:37:56;;;;;;;8.63;2.08;;;7.40;86.60;;;;;;5032741;28;20018;-81
2021/04/22 07:40:25;;;;;;;6.55;1.77;;;7.50;86.40;;;;;;5015267;28;20075;-81
2021/04/22 07:42:51;;;;;;;12.17;2.17;;;7.70;86.30;;;;;;5027456;28;20029;-80
2021/04/22 07:45:20;;;;;;;9.27;2.80;;;7.80;85.60;;;;;;5052187;28;20114;-81
2021/04/22 07:47:45;;;;;;;9.13;2.30;;;8.10;85.50;;;;;;5049919;28;20017;-82
2021/04/22 07:50:13;;;;;;;6.78;1.92;;;8.30;84.80;;;;;;5034176;28;20025;-81
2021/04/22 07:52:40;;;;;;;11.52;2.72;;;8.50;84.50;;;;;;5052087;28;20021;-81
2021/04/22 07:55:09;;;;;;;7.65;2.22;;;8.70;82.80;;;;;;5052133;28;20021;-81
2021/04/22 07:57:35;;;;;;;7.18;1.73;;;8.80;81.60;;;;;;5034155;28;20033;-82
2021/04/22 08:00:05;;;;;;;8.23;1.90;;;8.80;80.90;;;;;;5055372;28;20082;-81
2021/04/22 08:02:30;;;;;;;7.85;1.55;;;8.90;79.80;;;;;;5056235;28;20043;-82
2021/04/22 08:04:56;;;;;;;10.05;1.73;;;8.80;79.20;;;;;;5056069;28;20037;-82
2021/04/22 08:07:21;;;;;;;6.72;2.47;;;8.80;78.60;;;;;;5038354;28;20029;-81
2021/04/22 08:09:47;;;;;;;14.68;2.67;;;8.90;78.60;;;;;;5038191;28;20067;-82
2021/04/22 08:12:12;;;;;;;8.38;1.88;;;9.00;77.40;;;;;;5056030;28;20465;-82
2021/04/22 08:14:38;;;;;;;8.30;2.03;;;9.10;76.40;;;;;;5055948;28;20361;-81
2021/04/22 08:17:04;;;;;;;9.82;1.88;;;9.10;76.20;;;;;;5053123;28;20017;-84
2021/04/22 08:19:32;;;;;;;6.03;1.73;;;9.10;76.30;;;;;;5063506;28;20044;-83
2021/04/22 08:21:58;;;;;;;7.53;1.60;;;9.10;75.40;;;;;;5065628;28;20039;-82
2021/04/22 08:24:23;;;;;;;4.07;1.23;;;9.30;74.90;;;;;;5058085;28;20021;-82
2021/04/22 08:26:49;;;;;;;5.38;1.52;;;9.40;74.80;;;;;;5054991;28;20025;-84
2021/04/22 08:29:15;;;;;;;7.95;1.85;;;9.60;74.30;;;;;;5054849;28;20495;-83
2021/04/22 08:31:41;;;;;;;9.75;2.10;;;9.70;73.30;;;;;;5056256;28;20100;-83
2021/04/22 08:34:09;;;;;;;8.73;1.90;;;9.90;73.60;;;;;;5056030;28;20055;-82
2021/04/22 08:36:35;;;;;;;8.43;1.85;;;10.00;72.80;;;;;;5055981;28;20037;-81
2021/04/22 08:39:05;;;;;;;5.50;1.88;;;10.00;71.60;;;;;;5055654;28;20028;-81
2021/04/22 08:41:31;;;;;;;6.72;1.77;;;10.10;71.50;;;;;;5056124;28;20029;-82
2021/04/22 08:43:57;;;;;;;9.70;2.53;;;10.10;71.30;;;;;;5055867;28;20025;-82
2021/04/22 08:46:23;;;;;;;7.90;2.45;;;10.20;70.90;;;;;;5054664;28;20025;-83
2021/04/22 08:48:49;;;;;;;4.57;1.65;;;10.40;71.00;;;;;;5055720;28;20464;-82
2021/04/22 08:51:15;;;;;;;3.17;1.25;;;10.60;71.00;;;;;;5054642;28;20021;-82
2021/04/22 08:53:46;;;;;;;9.95;2.13;;;10.80;71.20;;;;;;5054588;28;20036;-81
2021/04/22 08:56:12;;;;;;;5.30;1.67;;;11.00;69.80;;;;;;5055880;28;20024;-81
2021/04/22 08:58:38;;;;;;;5.30;1.65;;;11.10;69.60;;;;;;5063315;28;20028;-81
2021/04/22 09:01:13;;;;;;;5.80;1.50;;;11.20;69.50;;;;;;5075565;28;20028;-82
2021/04/22 09:03:41;;;;;;;6.30;1.98;;;11.40;68.50;;;;;;5075655;28;20047;-82
2021/04/22 09:06:08;;;;;;;6.00;1.90;;;11.40;68.00;;;;;;5074383;28;20020;-81
2021/04/22 09:08:37;;;;;;;5.93;1.52;;;11.50;68.20;;;;;;5075629;28;20024;-82
2021/04/22 09:11:04;;;;;;;;;;;11.80;67.00;;;;;;5074635;28;20020;-83
2021/04/22 09:13:31;;;;;;;6.38;1.85;;;11.90;65.90;;;;;;5074057;28;19904;-83
2021/04/22 09:16:07;;;;;;;5.53;1.50;;;11.90;65.30;;;;;;5065671;28;20016;-81
2021/04/22 09:18:42;;;;;;;7.30;1.77;;;12.00;64.70;;;;;;5053535;28;20041;-81
2021/04/22 09:21:27;;;;;;;6.25;2.25;;;12.00;63.70;;;;;;5055283;28;20135;-81
2021/04/22 09:24:12;;;;;;;5.07;1.30;;;12.20;62.90;;;;;;5054113;28;20025;-82
2021/04/22 09:26:53;;;;;;;6.75;1.58;;;12.20;62.80;;;;;;5062559;28;20021;-82
2021/04/22 09:29:49;;;;;;;7.00;1.48;;;12.20;62.60;;;;;;5062111;28;20079;-82
2021/04/22 09:32:28;;;;;;;8.15;1.83;;;12.20;62.00;;;;;;5049818;28;20040;-83
2021/04/22 09:34:56;;;;;;;5.47;1.90;;;12.30;61.80;;;;;;5061721;28;20024;-83
2021/04/22 09:37:34;;;;;;;9.25;2.20;;;12.50;61.20;;;;;;5062706;28;20017;-81
2021/04/22 09:40:10;;;;;;;7.93;1.92;;;12.60;60.50;;;;;;5057685;28;20091;-85
2021/04/22 09:42:36;;;;;;;7.38;1.55;;;12.90;61.30;;;;;;5053736;28;20121;-81
2021/04/22 09:45:07;;;;;;;6.78;1.73;;;13.60;61.40;;;;;;5057174;28;20025;-81
2021/04/22 09:47:32;;;;;;;7.88;1.50;;;14.70;58.30;;;;;;5080109;28;20053;-81
2021/04/22 09:50:00;;;;;;;6.50;1.52;;;15.30;54.90;;;;;;5094081;28;20028;-84
2021/04/22 09:52:32;;;;;;;6.82;1.95;;;17.30;52.40;;;;;;5089944;28;20490;-81
2021/04/22 09:54:59;;;;;;;5.60;1.80;;;18.30;48.20;;;;;;5091474;28;20024;-82
2021/04/22 09:57:28;;;;;;;3.95;1.13;;;18.00;47.60;;;;;;5092096;28;20050;-82
2021/04/22 09:59:54;;;;;;;6.18;1.83;;;18.90;48.00;;;;;;5089357;28;20024;-83
2021/04/22 10:02:21;;;;;;;6.90;1.90;;;21.10;45.90;;;;;;5090818;28;20020;-82
2021/04/22 10:04:49;;;;;;;4.57;1.40;;;22.00;40.30;;;;;;5090778;28;20384;-83
2021/04/22 10:07:32;;;;;;;4.72;1.35;;;22.70;40.80;;;;;;5091901;28;20027;-82
2021/04/22 10:10:01;;;;;;;3.40;1.20;;;24.00;39.70;;;;;;5093996;28;20475;-82
2021/04/22 10:12:32;;;;;;;5.82;1.70;;;25.00;38.70;;;;;;5090912;28;20016;-82
2021/04/22 10:15:10;;;;;;;3.25;1.08;;;26.10;35.80;;;;;;5090111;28;20024;-83
2021/04/22 10:17:36;;;;;;;6.05;1.50;;;26.50;35.40;;;;;;5090541;28;20020;-84
2021/04/22 10:20:12;;;;;;;4.45;1.42;;;26.80;33.60;;;;;;5072776;28;20444;-83
2021/04/22 10:22:41;;;;;;;6.25;1.80;;;27.10;32.90;;;;;;5066829;28;20032;-83
2021/04/22 10:25:09;;;;;;;3.50;1.10;;;27.70;33.20;;;;;;5071088;28;20040;-83
2021/04/22 10:27:36;;;;;;;5.03;1.80;;;28.60;32.00;;;;;;5036084;28;20028;-82
2021/04/22 10:30:07;;;;;;;5.53;1.25;;;28.90;31.10;;;;;;5035733;28;20025;-84
2021/04/22 10:32:34;;;;;;;4.07;1.35;;;29.10;31.90;;;;;;5035876;28;20036;-83
2021/04/22 10:35:01;;;;;;;3.95;1.15;;;29.30;31.00;;;;;;5020140;28;20025;-83
2021/04/22 10:37:28;;;;;;;5.57;1.67;;;29.50;30.80;;;;;;5032468;28;20029;-83
2021/04/22 10:39:56;;;;;;;6.60;2.17;;;29.80;29.90;;;;;;5053207;28;20024;-83
2021/04/22 10:42:23;;;;;;;5.00;1.40;;;29.70;29.50;;;;;;5035639;28;20033;-83
2021/04/22 10:44:49;;;;;;;4.80;1.48;;;29.00;29.90;;;;;;5044971;28;20047;-84
2021/04/22 10:47:19;;;;;;;3.83;1.50;;;28.80;30.30;;;;;;5070725;28;20039;-83
2021/04/22 10:49:46;;;;;;;4.10;1.20;;;29.00;30.00;;;;;;5051914;28;20447;-85
2021/04/22 10:52:14;;;;;;;7.63;1.70;;;29.60;30.80;;;;;;5070094;28;20027;-84
2021/04/22 10:54:41;;;;;;;4.97;1.55;;;29.80;29.40;;;;;;5066781;28;20013;-83
2021/04/22 10:57:17;;;;;;;5.28;1.50;;;29.50;28.50;;;;;;5069480;28;20115;-83
2021/04/22 10:59:44;;;;;;;5.95;1.77;;;29.40;28.70;;;;;;5032172;28;20029;-83
2021/04/22 11:02:20;;;;;;;5.07;1.17;;;29.90;29.60;;;;;;5044384;28;20028;-84
2021/04/22 11:04:48;;;;;;;5.68;1.90;;;30.50;29.10;;;;;;5064613;28;20021;-83
2021/04/22 11:07:16;;;;;;;6.85;1.77;;;30.40;27.80;;;;;;5071122;28;20050;-83
2021/04/22 11:09:42;;;;;;;6.10;1.80;;;30.50;27.80;;;;;;5070484;28;20025;-84
2021/04/22 11:12:09;;;;;;;4.25;2.15;;;30.60;27.50;;;;;;5071913;28;20442;-82
2021/04/22 11:14:45;;;;;;;3.58;1.42;;;31.20;28.10;;;;;;5069378;28;20029;-82
2021/04/22 11:17:11;;;;;;;4.60;1.40;;;31.80;28.40;;;;;;5066901;28;20095;-84
2021/04/22 11:19:42;;;;;;;4.18;1.50;;;32.40;28.00;;;;;;5082972;28;20566;-84
2021/04/22 11:22:21;;;;;;;5.57;1.85;;;32.50;26.60;;;;;;5088507;28;20020;-83
2021/04/22 11:25:02;;;;;;;3.53;1.50;;;32.20;26.90;;;;;;5071658;28;20100;-85
2021/04/22 11:27:31;;;;;;;3.92;1.52;;;31.90;27.60;;;;;;5067026;28;20031;-84
2021/04/22 11:30:02;;;;;;;6.00;1.92;;;31.90;27.50;;;;;;5090351;28;20062;-82
2021/04/22 11:32:32;;;;;;;3.25;1.30;;;31.60;26.50;;;;;;5066296;28;20427;-84
2021/04/22 11:35:09;;;;;;;5.57;1.30;;;32.10;27.50;;;;;;5087893;28;20024;-82
2021/04/22 11:37:43;;;;;;;5.38;1.92;;;33.10;27.90;;;;;;5083711;28;20082;-82
2021/04/22 11:40:29;;;;;;;5.00;1.73;;;33.70;26.30;;;;;;5089180;28;20065;-83
2021/04/22 11:42:56;;;;;;;5.03;1.77;;;32.50;25.90;;;;;;5065195;28;20025;-83
2021/04/22 11:45:30;;;;;;;4.32;2.00;;;31.70;26.90;;;;;;5081542;28;20024;-83
2021/04/22 11:48:07;;;;;;;4.45;1.45;;;31.60;27.20;;;;;;5082507;28;20027;-82
2021/04/22 11:51:06;;;;;;;4.70;1.88;;;31.80;26.40;;;;;;5085801;28;20541;-83
2021/04/22 11:53:41;;;;;;;2.92;1.52;;;32.40;26.90;;;;;;5053193;28;20047;-82
2021/04/22 11:56:11;;;;;;;4.90;1.73;;;33.10;27.00;;;;;;5085402;28;20023;-83
2021/04/22 11:58:38;;;;;;;2.47;1.45;;;33.50;28.00;;;;;;5083739;28;20143;-83
2021/04/22 12:01:07;;;;;;;3.22;1.55;;;33.70;26.50;;;;;;5088333;28;20017;-83
2021/04/22 12:03:36;;;;;;;5.07;1.50;;;33.40;25.90;;;;;;5080325;28;20023;-83
2021/04/22 12:06:05;;;;;;;4.00;1.75;;;33.80;26.80;;;;;;5082012;28;20017;-83
2021/04/22 12:08:41;;;;;;;4.82;1.52;;;33.60;26.20;;;;;;5086521;28;20050;-83
2021/04/22 12:11:09;;;;;;;4.78;1.77;;;33.10;26.40;;;;;;5084191;28;20507;-84
2021/04/22 12:13:36;;;;;;;2.97;0.90;;;32.50;26.20;;;;;;5086282;28;20074;-83
2021/04/22 12:16:04;;;;;;;8.50;2.28;;;32.50;27.60;;;;;;5079565;28;20028;-83
2021/04/22 12:18:31;;;;;;;6.07;1.98;;;32.40;25.50;;;;;;5059093;28;20102;-83
2021/04/22 12:21:16;;;;;;;5.15;1.83;;;31.10;26.20;;;;;;5065002;28;20025;-83
2021/04/22 12:23:44;;;;;;;2.92;1.40;;;30.10;27.30;;;;;;5068238;28;20025;-82
2021/04/22 12:26:35;;;;;;;3.72;1.42;;;30.00;27.80;;;;;;5063032;28;20021;-83
2021/04/22 12:29:02;;;;;;;4.55;1.80;;;30.50;27.70;;;;;;5069578;28;20056;-83
2021/04/22 12:31:35;;;;;;;2.72;1.58;;;30.70;27.30;;;;;;5059733;28;20031;-83
2021/04/22 12:34:14;;;;;;;4.10;1.38;;;30.10;27.50;;;;;;5060500;28;20024;-83
2021/04/22 12:36:51;;;;;;;2.35;1.20;;;30.00;27.80;;;;;;5059764;28;20014;-82
2021/04/22 12:39:24;;;;;;;4.30;1.73;;;30.40;27.90;;;;;;5060424;28;20075;-83
2021/04/22 12:41:50;;;;;;;2.47;1.08;;;31.20;27.40;;;;;;5061125;28;20028;-82
2021/04/22 12:44:19;;;;;;;4.07;1.45;;;31.50;27.90;;;;;;5061372;28;20085;-83
2021/04/22 12:46:45;;;;;;;7.45;1.60;;;31.60;26.80;;;;;;5058052;28;20467;-83
2021/04/22 12:49:16;;;;;;;3.03;1.50;;;31.60;27.10;;;;;;5064351;28;20036;-83
2021/04/22 12:51:42;;;;;;;6.10;1.88;;;31.70;27.10;;;;;;5071497;28;20023;-84
2021/04/22 12:54:07;;;;;;;3.92;1.50;;;31.60;26.50;;;;;;5074153;28;20024;-84
2021/04/22 12:56:34;;;;;;;5.60;1.67;;;31.10;26.40;;;;;;5074713;28;20021;-83